Time,TemperatureF,DewpointF,PressureIn,WindDirection,WindDirectionDegrees,WindSpeedMPH,WindSpeedGustMPH,Humidity,HourlyPrecipIn,Conditions,Clouds,dailyrainin,SolarRadiationWatts/m^2,SoftwareType,DateUTC
2013-07-16 06:17:00,63.2,61.1,30.12,South,180,3.0,-999.0,93,0.00,,,0.01,4,Wunderground v.1.15,2013-07-16 11:17:00,
2013-07-16 06:22:00,63.1,61.0,30.13,South,180,4.0,-999.0,93,0.00,,,0.01,8,Wunderground v.1.15,2013-07-16 11:22:00,
2013-07-16 06:27:00,63.1,61.0,30.13,South,180,3.0,-999.0,93,0.00,,,0.01,11,Wunderground v.1.15,2013-07-16 11:27:00,
2013-07-16 06:32:00,63.1,61.0,30.12,South,180,3.0,-999.0,93,0.00,,,0.01,13,Wunderground v.1.15,2013-07-16 11:32:00,
2013-07-16 06:37:00,63.2,61.1,30.12,South,180,3.0,-999.0,93,0.00,,,0.01,18,Wunderground v.1.15,2013-07-16 11:37:00,
2013-07-16 06:42:00,63.2,61.1,30.13,SSW,203,2.0,-999.0,93,0.00,,,0.01,23,Wunderground v.1.15,2013-07-16 11:42:00,
2013-07-16 06:47:00,63.3,61.2,30.13,SSW,203,2.0,-999.0,93,0.00,,,0.01,30,Wunderground v.1.15,2013-07-16 11:47:00,
2013-07-16 06:52:00,63.5,61.4,30.13,SSW,203,1.0,-999.0,93,0.00,,,0.01,38,Wunderground v.1.15,2013-07-16 11:52:00,
2013-07-16 06:57:00,63.7,61.9,30.13,SSW,203,0.0,-999.0,94,0.00,,,0.01,48,Wunderground v.1.15,2013-07-16 11:57:00,
2013-07-16 07:02:00,63.9,62.1,30.13,South,180,0.0,-999.0,94,0.00,,,0.01,56,Wunderground v.1.15,2013-07-16 12:02:00,
2013-07-16 07:07:00,64.1,62.3,30.13,N/A,-737280,0.0,-999.0,94,0.00,,,0.01,65,Wunderground v.1.15,2013-07-16 12:07:00,
2013-07-16 07:12:00,64.5,62.7,30.13,South,180,0.0,-999.0,94,0.00,,,0.01,76,Wunderground v.1.15,2013-07-16 12:12:00,
2013-07-16 07:17:00,64.9,63.1,30.13,South,180,1.0,-999.0,94,0.00,,,0.01,87,Wunderground v.1.15,2013-07-16 12:17:00,
2013-07-16 07:22:00,65.4,63.6,30.13,South,180,2.0,-999.0,94,0.00,,,0.01,102,Wunderground v.1.15,2013-07-16 12:22:00,
2013-07-16 07:27:00,65.9,64.1,30.13,South,180,2.0,-999.0,94,0.00,,,0.01,116,Wunderground v.1.15,2013-07-16 12:27:00,
2013-07-16 07:32:00,66.3,64.5,30.13,SSW,203,2.0,-999.0,94,0.00,,,0.01,132,Wunderground v.1.15,2013-07-16 12:32:00,
2013-07-16 07:37:00,66.7,65.2,30.14,South,180,3.0,-999.0,95,0.00,,,0.01,147,Wunderground v.1.15,2013-07-16 12:37:00,
2013-07-16 07:42:00,67.0,65.2,30.14,South,180,4.0,-999.0,94,0.00,,,0.01,159,Wunderground v.1.15,2013-07-16 12:42:00,
2013-07-16 07:47:00,67.2,65.4,30.14,South,180,4.0,-999.0,94,0.00,,,0.01,172,Wunderground v.1.15,2013-07-16 12:47:00,
2013-07-16 07:52:00,67.5,65.7,30.14,South,180,4.0,-999.0,94,0.00,,,0.01,184,Wunderground v.1.15,2013-07-16 12:52:00,
2013-07-16 07:57:00,67.9,66.1,30.14,South,180,5.0,-999.0,94,0.00,,,0.01,198,Wunderground v.1.15,2013-07-16 12:57:00,
2013-07-16 08:02:00,68.3,66.5,30.14,South,180,4.0,-999.0,94,0.00,,,0.01,212,Wunderground v.1.15,2013-07-16 13:02:00,
2013-07-16 08:07:00,68.7,66.9,30.15,South,180,5.0,-999.0,94,0.00,,,0.01,226,Wunderground v.1.15,2013-07-16 13:07:00,
2013-07-16 08:12:00,69.1,67.3,30.15,South,180,5.0,-999.0,94,0.00,,,0.01,240,Wunderground v.1.15,2013-07-16 13:12:00,
2013-07-16 08:17:00,69.5,67.4,30.15,South,180,4.0,-999.0,93,0.00,,,0.01,258,Wunderground v.1.15,2013-07-16 13:17:00,
2013-07-16 08:22:00,69.7,67.0,30.15,South,180,5.0,-999.0,91,0.00,,,0.01,280,Wunderground v.1.15,2013-07-16 13:22:00,
2013-07-16 08:27:00,70.0,66.9,30.15,South,180,5.0,-999.0,90,0.00,,,0.01,301,Wunderground v.1.15,2013-07-16 13:27:00,
2013-07-16 08:32:00,70.5,66.8,30.16,South,180,6.0,-999.0,88,0.00,,,0.01,317,Wunderground v.1.15,2013-07-16 13:32:00,
2013-07-16 08:37:00,71.0,66.6,30.16,South,180,6.0,-999.0,86,0.00,,,0.01,334,Wunderground v.1.15,2013-07-16 13:37:00,
2013-07-16 08:42:00,71.5,66.4,30.16,SSW,203,6.0,-999.0,84,0.00,,,0.01,352,Wunderground v.1.15,2013-07-16 13:42:00,
2013-07-16 08:47:00,72.1,66.6,30.16,SSW,203,6.0,-999.0,83,0.00,,,0.01,364,Wunderground v.1.15,2013-07-16 13:47:00,
2013-07-16 08:52:00,72.5,66.7,30.16,South,180,7.0,-999.0,82,0.00,,,0.01,378,Wunderground v.1.15,2013-07-16 13:52:00,
2013-07-16 08:57:00,72.9,66.7,30.16,South,180,6.0,-999.0,81,0.00,,,0.01,392,Wunderground v.1.15,2013-07-16 13:57:00,
2013-07-16 09:02:00,73.3,66.8,30.16,SSW,203,7.0,-999.0,80,0.00,,,0.01,407,Wunderground v.1.15,2013-07-16 14:02:00,
2013-07-16 09:07:00,73.6,66.7,30.16,SSW,203,6.0,-999.0,79,0.00,,,0.01,423,Wunderground v.1.15,2013-07-16 14:07:00,
2013-07-16 09:12:00,73.9,67.0,30.17,SSW,203,6.0,-999.0,79,0.00,,,0.01,439,Wunderground v.1.15,2013-07-16 14:12:00,
2013-07-16 09:17:00,74.3,67.7,30.17,South,180,5.0,-999.0,80,0.00,,,0.01,454,Wunderground v.1.15,2013-07-16 14:17:00,
2013-07-16 09:22:00,74.8,67.8,30.17,South,180,5.0,-999.0,79,0.00,,,0.01,468,Wunderground v.1.15,2013-07-16 14:22:00,
2013-07-16 09:27:00,75.3,67.6,30.17,SSE,158,6.0,-999.0,77,0.00,,,0.01,481,Wunderground v.1.15,2013-07-16 14:27:00,
2013-07-16 09:32:00,75.8,67.3,30.17,South,180,6.0,-999.0,75,0.00,,,0.01,494,Wunderground v.1.15,2013-07-16 14:32:00,
2013-07-16 09:37:00,76.2,67.7,30.17,South,180,5.0,-999.0,75,0.00,,,0.01,510,Wunderground v.1.15,2013-07-16 14:37:00,
2013-07-16 09:42:00,76.7,67.4,30.17,South,180,6.0,-999.0,73,0.00,,,0.01,523,Wunderground v.1.15,2013-07-16 14:42:00,
2013-07-16 09:47:00,77.1,67.8,30.17,South,180,6.0,-999.0,73,0.00,,,0.01,537,Wunderground v.1.15,2013-07-16 14:47:00,
2013-07-16 09:52:00,77.4,66.8,30.17,South,180,7.0,-999.0,70,0.00,,,0.01,551,Wunderground v.1.15,2013-07-16 14:52:00,
2013-07-16 09:53:00,77.5,67.4,30.17,SSW,196,7.0,7.0,71,0.00,,,0.01,561,Wunderground v.1.15,2013-07-16 14:53:00,
2013-07-16 09:57:00,77.6,67.0,30.18,SSW,203,6.0,-999.0,70,0.00,,,0.01,563,Wunderground v.1.15,2013-07-16 14:57:00,
2013-07-16 09:58:00,77.7,67.5,30.18,South,171,7.0,7.0,71,0.00,,,0.01,573,Wunderground v.1.15,2013-07-16 14:58:00,
2013-07-16 10:02:00,78.0,67.4,30.18,SSW,203,6.0,-999.0,70,0.00,,,0.01,577,Wunderground v.1.15,2013-07-16 15:02:00,
2013-07-16 10:04:00,78.2,67.6,30.18,South,184,6.0,7.0,70,0.00,,,0.01,587,Wunderground v.1.15,2013-07-16 15:04:00,
2013-07-16 10:07:00,78.4,66.5,30.18,South,180,5.0,-999.0,67,0.00,,,0.01,590,Wunderground v.1.15,2013-07-16 15:07:00,
2013-07-16 10:09:00,78.6,67.2,30.18,SSW,208,6.0,10.0,68,0.00,,,0.01,603,Wunderground v.1.15,2013-07-16 15:09:00,
2013-07-16 10:12:00,78.8,67.3,30.18,SSW,203,6.0,-999.0,68,0.00,,,0.01,604,Wunderground v.1.15,2013-07-16 15:12:00,
2013-07-16 10:17:00,79.3,68.2,30.17,South,180,5.0,-999.0,69,0.00,,,0.01,616,Wunderground v.1.15,2013-07-16 15:17:00,
2013-07-16 10:22:00,79.6,66.3,30.17,South,180,6.0,-999.0,64,0.00,,,0.01,629,Wunderground v.1.15,2013-07-16 15:22:00,
2013-07-16 10:27:00,80.0,67.6,30.17,South,180,5.0,-999.0,66,0.00,,,0.01,640,Wunderground v.1.15,2013-07-16 15:27:00,
2013-07-16 10:32:00,80.3,67.5,30.17,SSW,203,5.0,-999.0,65,0.00,,,0.01,652,Wunderground v.1.15,2013-07-16 15:32:00,
2013-07-16 10:37:00,80.8,67.9,30.17,SSW,203,6.0,-999.0,65,0.00,,,0.01,664,Wunderground v.1.15,2013-07-16 15:37:00,
2013-07-16 10:42:00,81.2,67.9,30.17,SSE,158,6.0,-999.0,64,0.00,,,0.01,676,Wunderground v.1.15,2013-07-16 15:42:00,
2013-07-16 10:47:00,81.5,67.2,30.18,SSW,203,7.0,-999.0,62,0.00,,,0.01,689,Wunderground v.1.15,2013-07-16 15:47:00,
2013-07-16 10:52:00,81.6,67.3,30.18,South,180,6.0,-999.0,62,0.00,,,0.01,701,Wunderground v.1.15,2013-07-16 15:52:00,
2013-07-16 10:57:00,81.8,67.0,30.17,SSW,203,7.0,-999.0,61,0.00,,,0.01,714,Wunderground v.1.15,2013-07-16 15:57:00,
2013-07-16 11:02:00,81.9,66.6,30.18,SSW,203,8.0,-999.0,60,0.00,,,0.01,722,Wunderground v.1.15,2013-07-16 16:02:00,
2013-07-16 11:07:00,82.0,66.3,30.17,SSW,203,6.0,-999.0,59,0.00,,,0.01,729,Wunderground v.1.15,2013-07-16 16:07:00,
2013-07-16 11:12:00,82.4,67.1,30.17,SSW,203,5.0,-999.0,60,0.00,,,0.01,742,Wunderground v.1.15,2013-07-16 16:12:00,
2013-07-16 11:17:00,82.6,66.8,30.17,SW,225,7.0,-999.0,59,0.00,,,0.01,752,Wunderground v.1.15,2013-07-16 16:17:00,
2013-07-16 11:22:00,83.0,67.7,30.17,South,180,4.0,-999.0,60,0.00,,,0.01,762,Wunderground v.1.15,2013-07-16 16:22:00,
2013-07-16 11:27:00,83.7,66.8,30.18,SSW,203,7.0,-999.0,57,0.00,,,0.01,768,Wunderground v.1.15,2013-07-16 16:27:00,
2013-07-16 11:32:00,84.0,67.1,30.17,SSW,203,7.0,-999.0,57,0.00,,,0.01,781,Wunderground v.1.15,2013-07-16 16:32:00,
2013-07-16 11:37:00,84.2,66.3,30.17,SSW,203,7.0,-999.0,55,0.00,,,0.01,787,Wunderground v.1.15,2013-07-16 16:37:00,
2013-07-16 11:42:00,84.5,68.1,30.17,South,180,7.0,-999.0,58,0.00,,,0.01,793,Wunderground v.1.15,2013-07-16 16:42:00,
2013-07-16 11:47:00,84.7,67.3,30.18,SSW,203,6.0,-999.0,56,0.00,,,0.01,806,Wunderground v.1.15,2013-07-16 16:47:00,
2013-07-16 11:52:00,84.7,66.2,30.18,SSW,203,8.0,-999.0,54,0.00,,,0.01,810,Wunderground v.1.15,2013-07-16 16:52:00,
2013-07-16 11:57:00,84.7,66.2,30.18,SSW,203,8.0,-999.0,54,0.00,,,0.01,824,Wunderground v.1.15,2013-07-16 16:57:00,
2013-07-16 12:02:00,84.9,65.9,30.18,South,180,8.0,-999.0,53,0.00,,,0.01,836,Wunderground v.1.15,2013-07-16 17:02:00,
2013-07-16 12:07:00,85.2,66.7,30.18,South,180,8.0,-999.0,54,0.00,,,0.01,852,Wunderground v.1.15,2013-07-16 17:07:00,
2013-07-16 12:12:00,85.5,67.5,30.18,South,180,9.0,-999.0,55,0.00,,,0.01,866,Wunderground v.1.15,2013-07-16 17:12:00,
2013-07-16 12:17:00,85.7,66.6,30.18,South,180,9.0,-999.0,53,0.00,,,0.01,893,Wunderground v.1.15,2013-07-16 17:17:00,
2013-07-16 12:22:00,85.5,65.9,30.17,SSW,203,6.0,-999.0,52,0.00,,,0.01,281,Wunderground v.1.15,2013-07-16 17:22:00,
2013-07-16 12:27:00,85.5,67.5,30.17,South,180,6.0,-999.0,55,0.00,,,0.01,895,Wunderground v.1.15,2013-07-16 17:27:00,
2013-07-16 12:32:00,85.9,66.8,30.17,South,180,7.0,-999.0,53,0.00,,,0.01,885,Wunderground v.1.15,2013-07-16 17:32:00,
2013-07-16 12:37:00,86.3,66.0,30.17,SSE,158,9.0,-999.0,51,0.00,,,0.01,930,Wunderground v.1.15,2013-07-16 17:37:00,
2013-07-16 12:42:00,86.6,67.4,30.17,South,180,7.0,-999.0,53,0.00,,,0.01,894,Wunderground v.1.15,2013-07-16 17:42:00,
2013-07-16 12:47:00,87.0,66.1,30.17,SSW,203,7.0,-999.0,50,0.00,,,0.01,890,Wunderground v.1.15,2013-07-16 17:47:00,
2013-07-16 12:52:00,87.1,66.2,30.17,SSE,158,8.0,-999.0,50,0.00,,,0.01,896,Wunderground v.1.15,2013-07-16 17:52:00,
2013-07-16 12:57:00,87.2,65.1,30.17,SSE,158,9.0,-999.0,48,0.00,,,0.01,837,Wunderground v.1.15,2013-07-16 17:57:00,
2013-07-16 13:02:00,87.2,66.9,30.17,SE,135,9.0,-999.0,51,0.00,,,0.01,925,Wunderground v.1.15,2013-07-16 18:02:00,
2013-07-16 13:07:00,87.5,66.6,30.16,SSW,203,7.0,-999.0,50,0.00,,,0.01,909,Wunderground v.1.15,2013-07-16 18:07:00,
2013-07-16 13:12:00,87.7,65.6,30.17,SSW,203,7.0,-999.0,48,0.00,,,0.01,947,Wunderground v.1.15,2013-07-16 18:12:00,
2013-07-16 13:17:00,87.3,65.2,30.16,South,180,6.0,-999.0,48,0.00,,,0.01,501,Wunderground v.1.15,2013-07-16 18:17:00,
2013-07-16 13:22:00,87.4,66.5,30.16,SSE,158,5.0,-999.0,50,0.00,,,0.01,923,Wunderground v.1.15,2013-07-16 18:22:00,
2013-07-16 13:27:00,87.8,67.4,30.16,SSW,203,6.0,-999.0,51,0.00,,,0.01,950,Wunderground v.1.15,2013-07-16 18:27:00,
2013-07-16 13:32:00,88.1,67.1,30.16,South,180,5.0,-999.0,50,0.00,,,0.01,969,Wunderground v.1.15,2013-07-16 18:32:00,
2013-07-16 13:37:00,88.6,65.8,30.16,SSW,203,8.0,-999.0,47,0.00,,,0.01,1006,Wunderground v.1.15,2013-07-16 18:37:00,
2013-07-16 13:42:00,88.7,65.9,30.16,SSE,158,9.0,-999.0,47,0.00,,,0.01,665,Wunderground v.1.15,2013-07-16 18:42:00,
2013-07-16 13:47:00,88.6,66.4,30.16,SSE,158,6.0,-999.0,48,0.00,,,0.01,1089,Wunderground v.1.15,2013-07-16 18:47:00,
2013-07-16 13:52:00,88.8,66.0,30.16,SE,135,7.0,-999.0,47,0.00,,,0.01,1055,Wunderground v.1.15,2013-07-16 18:52:00,
2013-07-16 13:57:00,89.3,65.2,30.16,SSE,158,8.0,-999.0,45,0.00,,,0.01,1024,Wunderground v.1.15,2013-07-16 18:57:00,
2013-07-16 14:02:00,89.7,66.2,30.16,South,180,10.0,-999.0,46,0.00,,,0.01,998,Wunderground v.1.15,2013-07-16 19:02:00,
2013-07-16 14:07:00,89.9,67.0,30.15,SSW,203,8.0,-999.0,47,0.00,,,0.01,986,Wunderground v.1.15,2013-07-16 19:07:00,
2013-07-16 14:12:00,89.8,65.6,30.15,SSW,203,8.0,-999.0,45,0.00,,,0.01,468,Wunderground v.1.15,2013-07-16 19:12:00,
2013-07-16 14:17:00,89.5,66.0,30.15,SSW,203,4.0,-999.0,46,0.00,,,0.01,290,Wunderground v.1.15,2013-07-16 19:17:00,
2013-07-16 14:22:00,89.6,65.4,30.15,SSW,203,8.0,-999.0,45,0.00,,,0.01,820,Wunderground v.1.15,2013-07-16 19:22:00,
2013-07-16 14:27:00,89.5,66.0,30.15,SSE,158,6.0,-999.0,46,0.00,,,0.01,1046,Wunderground v.1.15,2013-07-16 19:27:00,
2013-07-16 14:32:00,89.3,65.8,30.15,SE,135,7.0,-999.0,46,0.00,,,0.01,524,Wunderground v.1.15,2013-07-16 19:32:00,
2013-07-16 14:37:00,89.6,66.1,30.15,South,180,10.0,-999.0,46,0.00,,,0.01,992,Wunderground v.1.15,2013-07-16 19:37:00,
2013-07-16 14:42:00,89.7,65.5,30.14,SSW,203,6.0,-999.0,45,0.00,,,0.01,331,Wunderground v.1.15,2013-07-16 19:42:00,
2013-07-16 14:47:00,89.5,66.0,30.14,SE,135,8.0,-999.0,46,0.00,,,0.01,395,Wunderground v.1.15,2013-07-16 19:47:00,
2013-07-16 14:52:00,89.4,65.9,30.14,South,180,8.0,-999.0,46,0.00,,,0.01,893,Wunderground v.1.15,2013-07-16 19:52:00,
2013-07-16 14:57:00,89.3,65.8,30.14,South,180,4.0,-999.0,46,0.00,,,0.01,527,Wunderground v.1.15,2013-07-16 19:57:00,
2013-07-16 15:02:00,89.5,67.8,30.14,SSE,158,6.0,-999.0,49,0.00,,,0.01,911,Wunderground v.1.15,2013-07-16 20:02:00,
2013-07-16 15:07:00,89.7,65.5,30.14,South,180,9.0,-999.0,45,0.00,,,0.01,589,Wunderground v.1.15,2013-07-16 20:07:00,
2013-07-16 15:12:00,89.9,66.3,30.14,South,180,9.0,-999.0,46,0.00,,,0.01,923,Wunderground v.1.15,2013-07-16 20:12:00,
2013-07-16 15:17:00,89.7,66.2,30.14,SSE,158,9.0,-999.0,46,0.00,,,0.01,956,Wunderground v.1.15,2013-07-16 20:17:00,
2013-07-16 15:22:00,89.9,65.7,30.14,SSE,158,8.0,-999.0,45,0.00,,,0.01,927,Wunderground v.1.15,2013-07-16 20:22:00,
2013-07-16 15:27:00,89.7,64.9,30.14,SSE,158,8.0,-999.0,44,0.00,,,0.01,246,Wunderground v.1.15,2013-07-16 20:27:00,
2013-07-16 15:32:00,89.3,65.8,30.14,South,180,8.0,-999.0,46,0.00,,,0.01,268,Wunderground v.1.15,2013-07-16 20:32:00,
2013-07-16 15:37:00,89.0,66.8,30.14,South,180,6.0,-999.0,48,0.00,,,0.01,317,Wunderground v.1.15,2013-07-16 20:37:00,
2013-07-16 15:42:00,88.8,67.2,30.14,South,180,7.0,-999.0,49,0.00,,,0.01,500,Wunderground v.1.15,2013-07-16 20:42:00,
2013-07-16 15:47:00,89.0,66.8,30.14,SSW,203,7.0,-999.0,48,0.00,,,0.01,972,Wunderground v.1.15,2013-07-16 20:47:00,
2013-07-16 15:52:00,89.5,67.8,30.13,South,180,5.0,-999.0,49,0.00,,,0.01,835,Wunderground v.1.15,2013-07-16 20:52:00,
2013-07-16 15:57:00,90.2,67.9,30.13,South,180,6.0,-999.0,48,0.00,,,0.01,817,Wunderground v.1.15,2013-07-16 20:57:00,
2013-07-16 16:02:00,90.3,65.4,30.13,SE,135,10.0,-999.0,44,0.00,,,0.01,662,Wunderground v.1.15,2013-07-16 21:02:00,
2013-07-16 16:07:00,89.6,65.4,30.13,SE,135,10.0,-999.0,45,0.00,,,0.01,212,Wunderground v.1.15,2013-07-16 21:07:00,
2013-07-16 16:12:00,88.8,66.0,30.13,SE,135,8.0,-999.0,47,0.00,,,0.01,279,Wunderground v.1.15,2013-07-16 21:12:00,
2013-07-16 16:17:00,88.5,66.3,30.13,SE,135,8.0,-999.0,48,0.00,,,0.01,764,Wunderground v.1.15,2013-07-16 21:17:00,
2013-07-16 16:22:00,88.9,66.1,30.12,SSE,158,7.0,-999.0,47,0.00,,,0.01,763,Wunderground v.1.15,2013-07-16 21:22:00,
2013-07-16 16:27:00,89.4,67.1,30.12,SE,135,7.0,-999.0,48,0.00,,,0.01,749,Wunderground v.1.15,2013-07-16 21:27:00,
2013-07-16 16:32:00,89.6,65.4,30.12,South,180,8.0,-999.0,45,0.00,,,0.01,241,Wunderground v.1.15,2013-07-16 21:32:00,
2013-07-16 16:37:00,89.3,65.2,30.12,SSE,158,6.0,-999.0,45,0.00,,,0.01,161,Wunderground v.1.15,2013-07-16 21:37:00,
2013-07-16 16:42:00,88.8,66.0,30.12,South,180,7.0,-999.0,47,0.00,,,0.01,257,Wunderground v.1.15,2013-07-16 21:42:00,
2013-07-16 16:47:00,88.8,67.2,30.12,SSW,203,6.0,-999.0,49,0.00,,,0.01,745,Wunderground v.1.15,2013-07-16 21:47:00,
2013-07-16 16:52:00,89.2,68.1,30.12,SSW,203,5.0,-999.0,50,0.00,,,0.01,738,Wunderground v.1.15,2013-07-16 21:52:00,
2013-07-16 16:57:00,89.7,67.4,30.12,SSW,203,6.0,-999.0,48,0.00,,,0.01,718,Wunderground v.1.15,2013-07-16 21:57:00,
2013-07-16 17:02:00,90.0,67.1,30.12,SSE,158,8.0,-999.0,47,0.00,,,0.01,644,Wunderground v.1.15,2013-07-16 22:02:00,
2013-07-16 17:07:00,90.2,67.2,30.12,SSE,158,8.0,-999.0,47,0.00,,,0.01,617,Wunderground v.1.15,2013-07-16 22:07:00,
2013-07-16 17:12:00,90.3,66.7,30.12,South,180,7.0,-999.0,46,0.00,,,0.01,605,Wunderground v.1.15,2013-07-16 22:12:00,
2013-07-16 17:17:00,90.4,66.8,30.12,South,180,6.0,-999.0,46,0.00,,,0.01,591,Wunderground v.1.15,2013-07-16 22:17:00,
2013-07-16 17:22:00,90.5,67.5,30.12,SSW,203,5.0,-999.0,47,0.00,,,0.01,596,Wunderground v.1.15,2013-07-16 22:22:00,
2013-07-16 17:27:00,90.2,65.3,30.12,SSE,158,8.0,-999.0,44,0.00,,,0.01,474,Wunderground v.1.15,2013-07-16 22:27:00,
2013-07-16 17:32:00,90.0,66.4,30.12,ESE,113,7.0,-999.0,46,0.00,,,0.01,596,Wunderground v.1.15,2013-07-16 22:32:00,
2013-07-16 17:37:00,90.1,67.2,30.12,South,180,7.0,-999.0,47,0.00,,,0.01,561,Wunderground v.1.15,2013-07-16 22:37:00,
2013-07-16 17:42:00,90.1,67.2,30.12,SE,135,6.0,-999.0,47,0.00,,,0.01,532,Wunderground v.1.15,2013-07-16 22:42:00,
2013-07-16 17:47:00,90.0,66.4,30.12,SE,135,6.0,-999.0,46,0.00,,,0.01,310,Wunderground v.1.15,2013-07-16 22:47:00,
2013-07-16 17:52:00,89.5,66.0,30.12,SE,135,7.0,-999.0,46,0.00,,,0.01,128,Wunderground v.1.15,2013-07-16 22:52:00,
2013-07-16 17:57:00,89.0,65.5,30.12,SSE,158,8.0,-999.0,46,0.00,,,0.01,378,Wunderground v.1.15,2013-07-16 22:57:00,
2013-07-16 18:02:00,88.8,66.0,30.12,SSE,158,8.0,-999.0,47,0.00,,,0.01,446,Wunderground v.1.15,2013-07-16 23:02:00,
2013-07-16 18:07:00,88.7,65.9,30.12,SSE,158,8.0,-999.0,47,0.00,,,0.01,411,Wunderground v.1.15,2013-07-16 23:07:00,
2013-07-16 18:18:00,88.5,67.5,30.12,SSE,158,6.0,-999.0,50,0.00,,,0.01,153,Wunderground v.1.15,2013-07-16 23:18:00,
2013-07-16 18:23:00,88.2,67.2,30.12,SSE,157,8.0,12.0,50,0.00,,,0.01,408,Wunderground v.1.15,2013-07-16 23:23:00,
2013-07-16 18:28:00,88.2,66.6,30.12,SE,144,7.0,12.0,49,0.00,,,0.01,371,Wunderground v.1.15,2013-07-16 23:28:00,
2013-07-16 18:33:00,88.2,66.6,30.12,SSE,155,6.0,10.0,49,0.00,,,0.01,93,Wunderground v.1.15,2013-07-16 23:33:00,
2013-07-16 18:38:00,88.0,68.2,30.12,SE,142,5.0,10.0,52,0.00,,,0.01,343,Wunderground v.1.15,2013-07-16 23:38:00,
2013-07-16 18:43:00,88.0,66.4,30.12,SE,139,5.0,8.0,49,0.00,,,0.01,345,Wunderground v.1.15,2013-07-16 23:43:00,
2013-07-16 18:48:00,88.0,66.4,30.12,South,169,7.0,9.0,49,0.00,,,0.01,336,Wunderground v.1.15,2013-07-16 23:48:00,
2013-07-16 18:54:00,88.1,67.1,30.12,SSE,161,5.0,11.0,50,0.00,,,0.01,241,Wunderground v.1.15,2013-07-16 23:54:00,
2013-07-16 18:59:00,87.8,66.3,30.12,SSE,157,7.0,7.0,49,0.00,,,0.01,232,Wunderground v.1.15,2013-07-16 23:59:00,
2013-07-16 19:04:00,87.5,66.6,30.13,SSE,153,7.0,7.0,50,0.00,,,0.01,77,Wunderground v.1.15,2013-07-17 00:04:00,
2013-07-16 19:09:00,87.2,67.4,30.12,SE,146,6.0,7.0,52,0.00,,,0.01,248,Wunderground v.1.15,2013-07-17 00:09:00,
2013-07-16 19:14:00,86.9,67.7,30.12,SSE,150,7.0,9.0,53,0.00,,,0.01,190,Wunderground v.1.15,2013-07-17 00:14:00,
2013-07-16 19:19:00,86.6,68.0,30.12,SSE,152,7.0,9.0,54,0.00,,,0.01,214,Wunderground v.1.15,2013-07-17 00:19:00,
2013-07-16 19:24:00,86.4,68.8,30.12,SE,146,4.0,6.0,56,0.00,,,0.01,200,Wunderground v.1.15,2013-07-17 00:24:00,
2013-07-16 19:29:00,86.2,68.7,30.13,SE,146,5.0,7.0,56,0.00,,,0.01,181,Wunderground v.1.15,2013-07-17 00:29:00,
2013-07-16 19:34:00,86.1,68.6,30.13,SSE,147,6.0,6.0,56,0.00,,,0.01,158,Wunderground v.1.15,2013-07-17 00:34:00,
2013-07-16 19:39:00,86.0,68.0,30.12,SSE,148,5.0,7.0,55,0.00,,,0.01,146,Wunderground v.1.15,2013-07-17 00:39:00,
2013-07-16 19:44:00,85.8,68.3,30.12,SE,140,6.0,7.0,56,0.00,,,0.01,135,Wunderground v.1.15,2013-07-17 00:44:00,
2013-07-16 19:49:00,85.7,68.7,30.12,SE,142,5.0,7.0,57,0.00,,,0.01,114,Wunderground v.1.15,2013-07-17 00:49:00,
2013-07-16 19:54:00,85.5,69.0,30.13,SE,143,5.0,6.0,58,0.00,,,0.01,100,Wunderground v.1.15,2013-07-17 00:54:00,
2013-07-16 19:59:00,85.3,69.3,30.13,SE,143,5.0,6.0,59,0.00,,,0.01,88,Wunderground v.1.15,2013-07-17 00:59:00,
2013-07-16 20:04:00,85.2,69.7,30.13,SE,143,2.0,5.0,60,0.00,,,0.01,76,Wunderground v.1.15,2013-07-17 01:04:00,
2013-07-16 20:09:00,85.0,70.0,30.12,SE,143,2.0,5.0,61,0.00,,,0.01,62,Wunderground v.1.15,2013-07-17 01:09:00,
2013-07-16 20:14:00,84.7,69.8,30.13,SE,143,2.0,5.0,61,0.00,,,0.01,51,Wunderground v.1.15,2013-07-17 01:14:00,
2013-07-16 20:19:00,84.5,69.6,30.12,SE,143,2.0,5.0,61,0.00,,,0.01,42,Wunderground v.1.15,2013-07-17 01:19:00,
2013-07-16 20:24:00,84.2,69.8,30.12,SE,143,2.0,4.0,62,0.00,,,0.01,32,Wunderground v.1.15,2013-07-17 01:24:00,
2013-07-16 20:29:00,83.6,69.2,30.13,SE,144,4.0,4.0,62,0.00,,,0.01,25,Wunderground v.1.15,2013-07-17 01:29:00,
2013-07-16 20:34:00,83.1,69.7,30.12,SE,144,4.0,5.0,64,0.00,,,0.01,18,Wunderground v.1.15,2013-07-17 01:34:00,
2013-07-16 20:39:00,82.5,68.6,30.12,SE,144,5.0,5.0,63,0.00,,,0.01,14,Wunderground v.1.15,2013-07-17 01:39:00,
2013-07-16 20:44:00,82.0,68.6,30.13,SE,144,5.0,5.0,64,0.00,,,0.01,11,Wunderground v.1.15,2013-07-17 01:44:00,
2013-07-16 20:49:00,81.5,68.6,30.12,SE,144,5.0,5.0,65,0.00,,,0.01,7,Wunderground v.1.15,2013-07-17 01:49:00,
2013-07-16 20:54:00,80.9,68.5,30.12,SE,144,4.0,5.0,66,0.00,,,0.01,5,Wunderground v.1.15,2013-07-17 01:54:00,
2013-07-16 20:59:00,80.3,68.3,30.12,SE,144,4.0,5.0,67,0.00,,,0.01,0,Wunderground v.1.15,2013-07-17 01:59:00,
2013-07-16 21:04:00,79.6,68.1,30.13,SE,144,4.0,5.0,68,0.00,,,0.01,0,Wunderground v.1.15,2013-07-17 02:04:00,
2013-07-16 21:09:00,79.0,68.0,30.13,SE,144,5.0,5.0,69,0.00,,,0.01,0,Wunderground v.1.15,2013-07-17 02:09:00,
2013-07-16 21:14:00,78.4,67.8,30.12,SE,144,5.0,6.0,70,0.00,,,0.01,0,Wunderground v.1.15,2013-07-17 02:14:00,
2013-07-16 21:20:00,77.8,67.6,30.12,SE,144,5.0,6.0,71,0.00,,,0.01,0,Wunderground v.1.15,2013-07-17 02:20:00,
2013-07-16 21:25:00,77.3,67.2,30.13,SE,144,4.0,5.0,71,0.00,,,0.01,0,Wunderground v.1.15,2013-07-17 02:25:00,
2013-07-16 21:30:00,76.9,67.2,30.13,SE,144,5.0,5.0,72,0.00,,,0.01,0,Wunderground v.1.15,2013-07-17 02:30:00,
2013-07-16 21:35:00,76.5,67.2,30.13,SE,144,5.0,5.0,73,0.00,,,0.01,0,Wunderground v.1.15,2013-07-17 02:35:00,
2013-07-16 21:40:00,76.2,66.9,30.13,SE,144,5.0,5.0,73,0.00,,,0.01,0,Wunderground v.1.15,2013-07-17 02:40:00,
2013-07-16 21:45:00,75.8,66.9,30.14,SE,144,4.0,5.0,74,0.00,,,0.01,0,Wunderground v.1.15,2013-07-17 02:45:00,
2013-07-16 21:50:00,75.5,66.6,30.14,SE,144,5.0,5.0,74,0.00,,,0.01,0,Wunderground v.1.15,2013-07-17 02:50:00,
2013-07-16 21:55:00,75.2,66.3,30.14,SE,144,5.0,5.0,74,0.00,,,0.01,0,Wunderground v.1.15,2013-07-17 02:55:00,
2013-07-16 22:00:00,74.9,66.4,30.14,SE,144,5.0,5.0,75,0.00,,,0.01,0,Wunderground v.1.15,2013-07-17 03:00:00,
2013-07-16 22:05:00,74.6,66.1,30.14,SE,144,5.0,5.0,75,0.00,,,0.01,0,Wunderground v.1.15,2013-07-17 03:05:00,
2013-07-16 22:11:00,74.4,66.0,30.15,SE,144,5.0,5.0,75,0.00,,,0.01,0,Wunderground v.1.15,2013-07-17 03:11:00,
2013-07-16 22:16:00,74.1,66.0,30.15,SE,144,4.0,5.0,76,0.00,,,0.01,0,Wunderground v.1.15,2013-07-17 03:16:00,
2013-07-16 22:21:00,73.9,65.9,30.15,SE,144,4.0,5.0,76,0.00,,,0.01,0,Wunderground v.1.15,2013-07-17 03:21:00,
2013-07-16 22:26:00,73.7,65.7,30.15,SE,144,5.0,6.0,76,0.00,,,0.01,0,Wunderground v.1.15,2013-07-17 03:26:00,
2013-07-16 22:31:00,73.6,65.6,30.15,SE,144,4.0,5.0,76,0.00,,,0.01,0,Wunderground v.1.15,2013-07-17 03:31:00,
2013-07-16 22:36:00,73.6,65.6,30.15,SE,144,4.0,5.0,76,0.00,,,0.01,0,Wunderground v.1.15,2013-07-17 03:36:00,
2013-07-16 22:41:00,73.6,65.6,30.15,SE,144,5.0,6.0,76,0.00,,,0.01,0,Wunderground v.1.15,2013-07-17 03:41:00,
2013-07-16 22:46:00,73.5,65.5,30.16,SE,144,6.0,6.0,76,0.00,,,0.01,0,Wunderground v.1.15,2013-07-17 03:46:00,
2013-07-16 22:51:00,73.6,65.6,30.16,SE,144,5.0,6.0,76,0.00,,,0.01,0,Wunderground v.1.15,2013-07-17 03:51:00,
2013-07-16 22:56:00,73.5,65.5,30.16,SE,144,5.0,6.0,76,0.00,,,0.01,0,Wunderground v.1.15,2013-07-17 03:56:00,
2013-07-16 23:01:00,73.4,65.7,30.16,SE,144,5.0,6.0,77,0.00,,,0.01,0,Wunderground v.1.15,2013-07-17 04:01:00,
2013-07-16 23:02:00,73.4,65.7,30.16,SE,144,5.0,6.0,77,0.00,,,0.01,0,Wunderground v.1.15,2013-07-17 04:02:00,
2013-07-16 23:07:00,73.2,65.6,30.16,SE,144,6.0,7.0,77,0.00,,,0.01,0,Wunderground v.1.15,2013-07-17 04:07:00,
2013-07-16 23:12:00,73.1,65.8,30.16,SE,130,5.0,8.0,78,0.00,,,0.01,0,Wunderground v.1.15,2013-07-17 04:12:00,
2013-07-16 23:17:00,73.1,65.8,30.16,ESE,115,5.0,8.0,78,0.00,,,0.01,0,Wunderground v.1.15,2013-07-17 04:17:00,
2013-07-16 23:22:00,73.0,66.1,30.17,ESE,115,4.0,5.0,79,0.00,,,0.01,0,Wunderground v.1.15,2013-07-17 04:22:00,
2013-07-16 23:27:00,72.9,66.0,30.17,ESE,115,4.0,5.0,79,0.00,,,0.01,0,Wunderground v.1.15,2013-07-17 04:27:00,
2013-07-16 23:32:00,72.8,65.9,30.17,ESE,115,5.0,5.0,79,0.00,,,0.01,0,Wunderground v.1.15,2013-07-17 04:32:00,
2013-07-16 23:37:00,72.7,65.8,30.17,ESE,115,5.0,5.0,79,0.00,,,0.01,0,Wunderground v.1.15,2013-07-17 04:37:00,
2013-07-16 23:42:00,72.5,65.6,30.17,ESE,115,4.0,5.0,79,0.00,,,0.01,0,Wunderground v.1.15,2013-07-17 04:42:00,
2013-07-16 23:47:00,72.3,65.4,30.17,ESE,115,5.0,5.0,79,0.00,,,0.01,0,Wunderground v.1.15,2013-07-17 04:47:00,
2013-07-16 23:52:00,72.2,65.7,30.17,ESE,115,5.0,5.0,80,0.00,,,0.01,0,Wunderground v.1.15,2013-07-17 04:52:00,
2013-07-16 23:55:00,72.1,65.6,30.17,ESE,115,4.0,5.0,80,0.00,,,0.01,0,Wunderground v.1.15,2013-07-17 04:55:00,